sensor_id;sensor_type;location;lat;lon;timestamp;pressure;altitude;pressure_sealevel;temperature;humidity
10008;BME280;5043;41.766;26.204;2023-04-04T00:01:00;99829.13;;;13.38;100.00
10008;BME280;5043;41.766;26.204;2023-04-04T00:03:26;99848.22;;;13.59;100.00
10008;BME280;5043;41.766;26.204;2023-04-04T00:05:51;99842.88;;;13.42;100.00
10008;BME280;5043;41.766;26.204;2023-04-04T00:08:17;99823.28;;;13.35;100.00
10008;BME280;5043;41.766;26.204;2023-04-04T00:10:42;99857.03;;;13.33;100.00
10008;BME280;5043;41.766;26.204;2023-04-04T00:13:08;99860.63;;;13.14;100.00
10008;BME280;5043;41.766;26.204;2023-04-04T00:15:33;99898.63;;;13.23;100.00
10008;BME280;5043;41.766;26.204;2023-04-04T00:18:01;99857.34;;;12.93;100.00
10008;BME280;5043;41.766;26.204;2023-04-04T00:20:28;99789.56;;;12.82;100.00
10008;BME280;5043;41.766;26.204;2023-04-04T00:22:54;99733.16;;;12.45;100.00
10008;BME280;5043;41.766;26.204;2023-04-04T00:25:19;99812.78;;;12.88;100.00
10008;BME280;5043;41.766;26.204;2023-04-04T00:27:46;99820.06;;;13.04;100.00
10008;BME280;5043;41.766;26.204;2023-04-04T00:30:12;99805.25;;;12.93;100.00
10008;BME280;5043;41.766;26.204;2023-04-04T00:32:37;99815.16;;;12.91;100.00
10008;BME280;5043;41.766;26.204;2023-04-04T00:35:03;99712.03;;;12.35;100.00
10008;BME280;5043;41.766;26.204;2023-04-04T00:37:28;99861.81;;;12.92;100.00
10008;BME280;5043;41.766;26.204;2023-04-04T00:39:54;99877.75;;;12.73;100.00
10008;BME280;5043;41.766;26.204;2023-04-04T00:42:19;99867.59;;;12.69;100.00
10008;BME280;5043;41.766;26.204;2023-04-04T00:44:45;99781.66;;;12.36;100.00
10008;BME280;5043;41.766;26.204;2023-04-04T00:47:10;99846.63;;;12.48;100.00
10008;BME280;5043;41.766;26.204;2023-04-04T00:49:36;99818.41;;;12.76;100.00
10008;BME280;5043;41.766;26.204;2023-04-04T00:52:02;99821.31;;;12.82;100.00
10008;BME280;5043;41.766;26.204;2023-04-04T00:54:29;99816.72;;;12.84;100.00
10008;BME280;5043;41.766;26.204;2023-04-04T00:56:55;99839.06;;;12.99;100.00
10008;BME280;5043;41.766;26.204;2023-04-04T00:59:24;99835.44;;;13.00;100.00
10008;BME280;5043;41.766;26.204;2023-04-04T01:01:52;99843.38;;;13.00;100.00
10008;BME280;5043;41.766;26.204;2023-04-04T01:04:17;99835.44;;;13.00;100.00
10008;BME280;5043;41.766;26.204;2023-04-04T01:06:44;99830.72;;;12.94;100.00
10008;BME280;5043;41.766;26.204;2023-04-04T01:09:12;99821.53;;;12.98;100.00
10008;BME280;5043;41.766;26.204;2023-04-04T01:11:41;99813.22;;;12.84;100.00
10008;BME280;5043;41.766;26.204;2023-04-04T01:14:08;99824.50;;;12.86;100.00
10008;BME280;5043;41.766;26.204;2023-04-04T01:16:33;99800.44;;;12.79;100.00
10008;BME280;5043;41.766;26.204;2023-04-04T01:19:00;99785.53;;;12.78;100.00
10008;BME280;5043;41.766;26.204;2023-04-04T01:21:28;99775.38;;;12.74;100.00
10008;BME280;5043;41.766;26.204;2023-04-04T01:24:00;99775.13;;;12.94;100.00
10008;BME280;5043;41.766;26.204;2023-04-04T01:26:27;99774.16;;;12.95;100.00
10008;BME280;5043;41.766;26.204;2023-04-04T01:28:54;99808.41;;;12.97;100.00
10008;BME280;5043;41.766;26.204;2023-04-04T01:31:36;99783.94;;;12.85;100.00
10008;BME280;5043;41.766;26.204;2023-04-04T01:34:10;99781.09;;;12.96;100.00
10008;BME280;5043;41.766;26.204;2023-04-04T01:36:46;99753.69;;;12.70;100.00
10008;BME280;5043;41.766;26.204;2023-04-04T01:39:38;99812.63;;;12.90;100.00
10008;BME280;5043;41.766;26.204;2023-04-04T01:42:06;99784.75;;;12.95;100.00
10008;BME280;5043;41.766;26.204;2023-04-04T01:44:33;99770.22;;;12.99;100.00
10008;BME280;5043;41.766;26.204;2023-04-04T01:47:00;99770.66;;;12.95;100.00
10008;BME280;5043;41.766;26.204;2023-04-04T01:49:27;99793.22;;;12.99;100.00
10008;BME280;5043;41.766;26.204;2023-04-04T01:51:54;99776.34;;;13.00;100.00
10008;BME280;5043;41.766;26.204;2023-04-04T01:54:20;99799.63;;;12.96;100.00
10008;BME280;5043;41.766;26.204;2023-04-04T01:56:46;99773.88;;;12.98;100.00
10008;BME280;5043;41.766;26.204;2023-04-04T01:59:11;99732.50;;;12.70;100.00
10008;BME280;5043;41.766;26.204;2023-04-04T02:01:37;99783.28;;;13.10;100.00
10008;BME280;5043;41.766;26.204;2023-04-04T02:04:03;99766.22;;;12.95;100.00
10008;BME280;5043;41.766;26.204;2023-04-04T02:06:28;99761.19;;;12.92;100.00
10008;BME280;5043;41.766;26.204;2023-04-04T02:08:54;99702.22;;;12.55;100.00
10008;BME280;5043;41.766;26.204;2023-04-04T02:11:21;99752.41;;;12.92;100.00
10008;BME280;5043;41.766;26.204;2023-04-04T02:13:49;99749.41;;;12.87;100.00
10008;BME280;5043;41.766;26.204;2023-04-04T02:16:14;99745.25;;;12.84;100.00
10008;BME280;5043;41.766;26.204;2023-04-04T02:18:40;99724.75;;;12.86;100.00
10008;BME280;5043;41.766;26.204;2023-04-04T02:21:07;99706.84;;;12.71;100.00
10008;BME280;5043;41.766;26.204;2023-04-04T02:23:33;99717.44;;;12.71;100.00
10008;BME280;5043;41.766;26.204;2023-04-04T02:26:01;99687.88;;;12.58;100.00
10008;BME280;5043;41.766;26.204;2023-04-04T02:28:27;99712.47;;;12.68;100.00
10008;BME280;5043;41.766;26.204;2023-04-04T02:30:52;99698.25;;;12.69;100.00
10008;BME280;5043;41.766;26.204;2023-04-04T02:33:18;99703.75;;;12.58;100.00
10008;BME280;5043;41.766;26.204;2023-04-04T02:35:43;99693.84;;;12.60;100.00
10008;BME280;5043;41.766;26.204;2023-04-04T02:38:12;99703.91;;;12.74;100.00
10008;BME280;5043;41.766;26.204;2023-04-04T02:40:38;99692.94;;;12.69;100.00
10008;BME280;5043;41.766;26.204;2023-04-04T02:43:06;99707.56;;;12.73;100.00
10008;BME280;5043;41.766;26.204;2023-04-04T02:45:31;99712.91;;;12.63;100.00
10008;BME280;5043;41.766;26.204;2023-04-04T02:47:56;99627.50;;;12.26;100.00
10008;BME280;5043;41.766;26.204;2023-04-04T02:50:22;99686.00;;;12.68;100.00
10008;BME280;5043;41.766;26.204;2023-04-04T02:52:47;99702.91;;;12.57;100.00
10008;BME280;5043;41.766;26.204;2023-04-04T02:55:13;99722.03;;;12.51;100.00
10008;BME280;5043;41.766;26.204;2023-04-04T02:57:38;99698.72;;;12.55;100.00
10008;BME280;5043;41.766;26.204;2023-04-04T03:00:05;99636.00;;;12.20;100.00
10008;BME280;5043;41.766;26.204;2023-04-04T03:02:31;99709.22;;;12.74;100.00
10008;BME280;5043;41.766;26.204;2023-04-04T03:04:57;99694.28;;;12.82;100.00
10008;BME280;5043;41.766;26.204;2023-04-04T03:07:22;99696.16;;;12.72;100.00
10008;BME280;5043;41.766;26.204;2023-04-04T03:09:48;99650.50;;;12.43;100.00
10008;BME280;5043;41.766;26.204;2023-04-04T03:12:13;99639.69;;;12.36;100.00
10008;BME280;5043;41.766;26.204;2023-04-04T03:14:39;99703.78;;;12.75;100.00
10008;BME280;5043;41.766;26.204;2023-04-04T03:17:05;99688.88;;;12.74;100.00
10008;BME280;5043;41.766;26.204;2023-04-04T03:19:30;99671.84;;;12.59;100.00
10008;BME280;5043;41.766;26.204;2023-04-04T03:21:56;99672.09;;;12.66;100.00
10008;BME280;5043;41.766;26.204;2023-04-04T03:24:21;99686.56;;;12.62;100.00
10008;BME280;5043;41.766;26.204;2023-04-04T03:26:47;99658.75;;;12.58;100.00
10008;BME280;5043;41.766;26.204;2023-04-04T03:29:12;99683.94;;;12.62;100.00
10008;BME280;5043;41.766;26.204;2023-04-04T03:31:38;99671.72;;;12.78;100.00
10008;BME280;5043;41.766;26.204;2023-04-04T03:34:04;99677.34;;;12.75;100.00
10008;BME280;5043;41.766;26.204;2023-04-04T03:36:30;99669.56;;;12.64;100.00
10008;BME280;5043;41.766;26.204;2023-04-04T03:38:55;99611.31;;;12.29;100.00
10008;BME280;5043;41.766;26.204;2023-04-04T03:41:21;99673.78;;;12.57;100.00
10008;BME280;5043;41.766;26.204;2023-04-04T03:43:46;99667.34;;;12.42;100.00
10008;BME280;5043;41.766;26.204;2023-04-04T03:46:13;99612.81;;;12.14;100.00
10008;BME280;5043;41.766;26.204;2023-04-04T03:48:38;99683.66;;;12.37;100.00
10008;BME280;5043;41.766;26.204;2023-04-04T03:51:04;99693.00;;;12.59;100.00
10008;BME280;5043;41.766;26.204;2023-04-04T03:53:29;99622.50;;;12.23;100.00
10008;BME280;5043;41.766;26.204;2023-04-04T03:55:55;99680.91;;;12.57;100.00
10008;BME280;5043;41.766;26.204;2023-04-04T03:58:21;99654.38;;;12.49;100.00
10008;BME280;5043;41.766;26.204;2023-04-04T04:00:47;99658.13;;;12.46;100.00
10008;BME280;5043;41.766;26.204;2023-04-04T04:03:13;99660.50;;;12.49;100.00
10008;BME280;5043;41.766;26.204;2023-04-04T04:05:38;99616.53;;;12.21;100.00
10008;BME280;5043;41.766;26.204;2023-04-04T04:08:04;99643.09;;;12.19;100.00
10008;BME280;5043;41.766;26.204;2023-04-04T04:10:31;99659.31;;;12.34;100.00
10008;BME280;5043;41.766;26.204;2023-04-04T04:12:57;99660.78;;;12.46;100.00
10008;BME280;5043;41.766;26.204;2023-04-04T04:15:22;99683.41;;;12.31;100.00
10008;BME280;5043;41.766;26.204;2023-04-04T04:17:48;99646.38;;;12.31;100.00
10008;BME280;5043;41.766;26.204;2023-04-04T04:20:13;99647.16;;;12.41;100.00
10008;BME280;5043;41.766;26.204;2023-04-04T04:22:44;99658.75;;;12.40;100.00
10008;BME280;5043;41.766;26.204;2023-04-04T04:25:10;99656.63;;;12.43;100.00
10008;BME280;5043;41.766;26.204;2023-04-04T04:27:35;99651.50;;;12.60;100.00
10008;BME280;5043;41.766;26.204;2023-04-04T04:30:01;99654.31;;;12.58;100.00
10008;BME280;5043;41.766;26.204;2023-04-04T04:32:26;99674.84;;;12.47;100.00
10008;BME280;5043;41.766;26.204;2023-04-04T04:34:52;99630.78;;;12.37;100.00
10008;BME280;5043;41.766;26.204;2023-04-04T04:37:17;99656.56;;;12.71;100.00
10008;BME280;5043;41.766;26.204;2023-04-04T04:39:43;99652.19;;;12.62;100.00
10008;BME280;5043;41.766;26.204;2023-04-04T04:42:08;99682.72;;;12.56;100.00
10008;BME280;5043;41.766;26.204;2023-04-04T04:44:34;99621.88;;;12.29;100.00
10008;BME280;5043;41.766;26.204;2023-04-04T04:46:59;99598.25;;;12.27;100.00
10008;BME280;5043;41.766;26.204;2023-04-04T04:49:25;99664.91;;;12.58;100.00
10008;BME280;5043;41.766;26.204;2023-04-04T04:51:50;99696.94;;;12.55;100.00
10008;BME280;5043;41.766;26.204;2023-04-04T04:54:16;99660.97;;;12.62;100.00
10008;BME280;5043;41.766;26.204;2023-04-04T04:56:41;99670.25;;;12.66;100.00
10008;BME280;5043;41.766;26.204;2023-04-04T04:59:06;99663.72;;;12.70;100.00
10008;BME280;5043;41.766;26.204;2023-04-04T05:01:33;99654.03;;;12.61;100.00
10008;BME280;5043;41.766;26.204;2023-04-04T05:03:58;99660.97;;;12.62;100.00
10008;BME280;5043;41.766;26.204;2023-04-04T05:06:24;99687.47;;;12.53;100.00
10008;BME280;5043;41.766;26.204;2023-04-04T05:08:49;99655.94;;;12.41;100.00
10008;BME280;5043;41.766;26.204;2023-04-04T05:11:15;99669.41;;;12.48;100.00
10008;BME280;5043;41.766;26.204;2023-04-04T05:13:40;99648.72;;;12.34;100.00
10008;BME280;5043;41.766;26.204;2023-04-04T05:16:06;99686.50;;;12.54;100.00
10008;BME280;5043;41.766;26.204;2023-04-04T05:18:31;99674.97;;;12.45;100.00
10008;BME280;5043;41.766;26.204;2023-04-04T05:20:56;99692.03;;;12.60;100.00
10008;BME280;5043;41.766;26.204;2023-04-04T05:23:22;99712.06;;;12.63;100.00
10008;BME280;5043;41.766;26.204;2023-04-04T05:25:51;99695.69;;;12.77;100.00
10008;BME280;5043;41.766;26.204;2023-04-04T05:28:18;99703.88;;;12.83;100.00
10008;BME280;5043;41.766;26.204;2023-04-04T05:30:44;99655.59;;;12.54;100.00
10008;BME280;5043;41.766;26.204;2023-04-04T05:33:09;99709.19;;;13.01;100.00
10008;BME280;5043;41.766;26.204;2023-04-04T05:35:35;99703.34;;;12.97;100.00
10008;BME280;5043;41.766;26.204;2023-04-04T05:38:00;99718.06;;;13.09;100.00
10008;BME280;5043;41.766;26.204;2023-04-04T05:40:26;99715.13;;;13.13;100.00
10008;BME280;5043;41.766;26.204;2023-04-04T05:42:55;99588.31;;;12.57;100.00
10008;BME280;5043;41.766;26.204;2023-04-04T05:45:21;99704.31;;;13.24;100.00
10008;BME280;5043;41.766;26.204;2023-04-04T05:47:46;99638.47;;;12.93;100.00
10008;BME280;5043;41.766;26.204;2023-04-04T05:50:12;99688.19;;;13.17;100.00
10008;BME280;5043;41.766;26.204;2023-04-04T05:52:37;99668.66;;;13.18;100.00
10008;BME280;5043;41.766;26.204;2023-04-04T05:55:03;99647.19;;;13.21;100.00
10008;BME280;5043;41.766;26.204;2023-04-04T05:57:28;99708.81;;;13.49;100.00
10008;BME280;5043;41.766;26.204;2023-04-04T05:59:54;99684.63;;;13.69;100.00
10008;BME280;5043;41.766;26.204;2023-04-04T06:02:19;99688.50;;;13.57;100.00
10008;BME280;5043;41.766;26.204;2023-04-04T06:04:45;99686.59;;;13.67;100.00
10008;BME280;5043;41.766;26.204;2023-04-04T06:07:10;99683.28;;;13.91;100.00
10008;BME280;5043;41.766;26.204;2023-04-04T06:13:27;99577.47;;;13.38;100.00
10008;BME280;5043;41.766;26.204;2023-04-04T06:15:52;99682.44;;;14.16;100.00
10008;BME280;5043;41.766;26.204;2023-04-04T06:18:18;99686.78;;;14.25;100.00
10008;BME280;5043;41.766;26.204;2023-04-04T06:20:43;99690.25;;;14.43;100.00
10008;BME280;5043;41.766;26.204;2023-04-04T06:23:09;99687.78;;;14.24;100.00
10008;BME280;5043;41.766;26.204;2023-04-04T06:25:37;99688.16;;;14.29;100.00
10008;BME280;5043;41.766;26.204;2023-04-04T06:28:03;99694.28;;;14.56;100.00
10008;BME280;5043;41.766;26.204;2023-04-04T06:30:28;99702.56;;;14.61;100.00
10008;BME280;5043;41.766;26.204;2023-04-04T06:32:54;99709.78;;;14.42;100.00
10008;BME280;5043;41.766;26.204;2023-04-04T06:35:20;99736.97;;;14.36;100.00
10008;BME280;5043;41.766;26.204;2023-04-04T06:37:46;99706.94;;;14.70;100.00
10008;BME280;5043;41.766;26.204;2023-04-04T06:40:12;99709.94;;;14.83;100.00
10008;BME280;5043;41.766;26.204;2023-04-04T06:42:38;99665.25;;;14.62;100.00
10008;BME280;5043;41.766;26.204;2023-04-04T06:45:03;99657.63;;;14.75;100.00
10008;BME280;5043;41.766;26.204;2023-04-04T06:47:29;99712.03;;;15.21;100.00
10008;BME280;5043;41.766;26.204;2023-04-04T06:49:54;99712.03;;;15.37;100.00
10008;BME280;5043;41.766;26.204;2023-04-04T06:52:20;99666.00;;;15.04;100.00
10008;BME280;5043;41.766;26.204;2023-04-04T06:54:45;99708.53;;;15.29;100.00
10008;BME280;5043;41.766;26.204;2023-04-04T06:57:11;99692.56;;;15.12;100.00
10008;BME280;5043;41.766;26.204;2023-04-04T06:59:37;99692.59;;;15.21;100.00
10008;BME280;5043;41.766;26.204;2023-04-04T07:02:02;99664.19;;;15.13;100.00
10008;BME280;5043;41.766;26.204;2023-04-04T07:04:27;99708.06;;;15.41;100.00
10008;BME280;5043;41.766;26.204;2023-04-04T07:06:56;99712.91;;;15.54;100.00
10008;BME280;5043;41.766;26.204;2023-04-04T07:09:22;99713.06;;;15.68;100.00
10008;BME280;5043;41.766;26.204;2023-04-04T07:11:47;99725.22;;;15.63;99.65
10008;BME280;5043;41.766;26.204;2023-04-04T07:14:13;99720.88;;;15.54;100.00
10008;BME280;5043;41.766;26.204;2023-04-04T07:16:38;99651.06;;;15.11;100.00
10008;BME280;5043;41.766;26.204;2023-04-04T07:19:04;99657.22;;;15.28;100.00
10008;BME280;5043;41.766;26.204;2023-04-04T07:21:30;99697.44;;;15.57;98.75
10008;BME280;5043;41.766;26.204;2023-04-04T07:23:56;99701.75;;;15.74;98.40
10008;BME280;5043;41.766;26.204;2023-04-04T07:26:22;99702.72;;;15.98;98.07
10008;BME280;5043;41.766;26.204;2023-04-04T07:28:48;99694.69;;;16.14;97.24
10008;BME280;5043;41.766;26.204;2023-04-04T07:31:13;99709.59;;;16.39;95.07
10008;BME280;5043;41.766;26.204;2023-04-04T07:33:39;99708.16;;;16.28;94.50
10008;BME280;5043;41.766;26.204;2023-04-04T07:36:04;99657.50;;;16.06;92.16
10008;BME280;5043;41.766;26.204;2023-04-04T07:38:30;99701.34;;;16.18;92.03
10008;BME280;5043;41.766;26.204;2023-04-04T07:40:56;99701.59;;;16.39;92.44
10008;BME280;5043;41.766;26.204;2023-04-04T07:43:23;99700.63;;;16.40;92.55
10008;BME280;5043;41.766;26.204;2023-04-04T07:45:49;99695.88;;;16.11;90.82
10008;BME280;5043;41.766;26.204;2023-04-04T07:48:14;99661.00;;;15.98;92.06
10008;BME280;5043;41.766;26.204;2023-04-04T07:50:40;99648.78;;;16.20;90.63
10008;BME280;5043;41.766;26.204;2023-04-04T07:53:06;99706.63;;;16.81;88.38
10008;BME280;5043;41.766;26.204;2023-04-04T07:55:31;99706.34;;;16.98;87.67
10008;BME280;5043;41.766;26.204;2023-04-04T07:57:57;99699.94;;;17.15;86.38
10008;BME280;5043;41.766;26.204;2023-04-04T08:00:22;99662.31;;;16.88;85.95
10008;BME280;5043;41.766;26.204;2023-04-04T08:02:52;99682.38;;;16.98;85.53
10008;BME280;5043;41.766;26.204;2023-04-04T08:05:18;99705.84;;;17.48;83.79
10008;BME280;5043;41.766;26.204;2023-04-04T08:07:43;99707.78;;;17.62;83.58
10008;BME280;5043;41.766;26.204;2023-04-04T08:10:09;99648.31;;;17.54;81.50
10008;BME280;5043;41.766;26.204;2023-04-04T08:12:36;99707.66;;;18.08;81.70
10008;BME280;5043;41.766;26.204;2023-04-04T08:15:02;99703.53;;;18.34;79.77
10008;BME280;5043;41.766;26.204;2023-04-04T08:17:28;99682.38;;;18.47;79.40
10008;BME280;5043;41.766;26.204;2023-04-04T08:19:53;99649.19;;;18.42;76.59
10008;BME280;5043;41.766;26.204;2023-04-04T08:22:19;99720.47;;;18.85;75.97
10008;BME280;5043;41.766;26.204;2023-04-04T08:24:46;99708.78;;;18.72;74.66
10008;BME280;5043;41.766;26.204;2023-04-04T08:27:13;99715.41;;;18.76;71.28
10008;BME280;5043;41.766;26.204;2023-04-04T08:29:40;99711.94;;;18.75;73.83
10008;BME280;5043;41.766;26.204;2023-04-04T08:32:12;99712.56;;;18.77;74.48
10008;BME280;5043;41.766;26.204;2023-04-04T08:34:40;99710.63;;;18.71;74.87
10008;BME280;5043;41.766;26.204;2023-04-04T08:37:07;99703.63;;;18.85;76.28
10008;BME280;5043;41.766;26.204;2023-04-04T08:39:33;99719.19;;;18.67;75.29
10008;BME280;5043;41.766;26.204;2023-04-04T08:42:04;99715.25;;;18.48;76.47
10008;BME280;5043;41.766;26.204;2023-04-04T08:44:31;99716.53;;;18.37;78.15
10008;BME280;5043;41.766;26.204;2023-04-04T08:46:59;99714.31;;;18.41;76.45
10008;BME280;5043;41.766;26.204;2023-04-04T08:49:26;99726.81;;;18.40;77.16
10008;BME280;5043;41.766;26.204;2023-04-04T08:51:55;99723.06;;;18.35;77.60
10008;BME280;5043;41.766;26.204;2023-04-04T08:54:27;99727.53;;;17.91;78.57
10008;BME280;5043;41.766;26.204;2023-04-04T08:57:05;99706.34;;;17.89;80.30
10008;BME280;5043;41.766;26.204;2023-04-04T08:59:33;99722.88;;;18.07;79.02
10008;BME280;5043;41.766;26.204;2023-04-04T09:02:04;99705.19;;;18.21;79.35
10008;BME280;5043;41.766;26.204;2023-04-04T09:04:42;99693.13;;;18.39;80.18
10008;BME280;5043;41.766;26.204;2023-04-04T09:07:15;99707.31;;;18.54;77.98
10008;BME280;5043;41.766;26.204;2023-04-04T09:09:53;99648.94;;;18.22;79.11
10008;BME280;5043;41.766;26.204;2023-04-04T09:12:19;99709.31;;;18.82;78.66
10008;BME280;5043;41.766;26.204;2023-04-04T09:14:46;99699.03;;;18.64;79.43
10008;BME280;5043;41.766;26.204;2023-04-04T09:17:15;99704.69;;;18.90;78.90
10008;BME280;5043;41.766;26.204;2023-04-04T09:19:40;99702.56;;;19.21;76.79
10008;BME280;5043;41.766;26.204;2023-04-04T09:22:07;99704.19;;;19.37;77.47
10008;BME280;5043;41.766;26.204;2023-04-04T09:24:38;99710.56;;;19.57;74.35
10008;BME280;5043;41.766;26.204;2023-04-04T09:27:06;99690.81;;;19.58;73.15
10008;BME280;5043;41.766;26.204;2023-04-04T09:29:32;99703.94;;;19.53;72.93
10008;BME280;5043;41.766;26.204;2023-04-04T09:31:58;99688.19;;;19.44;72.49
10008;BME280;5043;41.766;26.204;2023-04-04T09:34:23;99671.53;;;18.85;73.08
10008;BME280;5043;41.766;26.204;2023-04-04T09:36:50;99604.16;;;18.53;75.07
10008;BME280;5043;41.766;26.204;2023-04-04T09:39:18;99687.75;;;19.19;76.16
10008;BME280;5043;41.766;26.204;2023-04-04T09:41:45;99693.84;;;19.55;73.47
10008;BME280;5043;41.766;26.204;2023-04-04T09:44:11;99695.16;;;19.87;70.86
10008;BME280;5043;41.766;26.204;2023-04-04T09:46:38;99655.75;;;19.53;69.56
10008;BME280;5043;41.766;26.204;2023-04-04T09:49:04;99669.78;;;19.55;70.11
10008;BME280;5043;41.766;26.204;2023-04-04T09:51:37;99671.13;;;19.23;71.47
10008;BME280;5043;41.766;26.204;2023-04-04T09:54:09;99687.63;;;19.27;70.06
10008;BME280;5043;41.766;26.204;2023-04-04T09:56:35;99694.56;;;18.86;70.47
10008;BME280;5043;41.766;26.204;2023-04-04T09:59:05;99676.91;;;18.26;74.23
10008;BME280;5043;41.766;26.204;2023-04-04T10:01:31;99681.72;;;18.16;75.88
10008;BME280;5043;41.766;26.204;2023-04-04T10:03:57;99676.81;;;18.20;76.48
10008;BME280;5043;41.766;26.204;2023-04-04T10:06:23;99670.84;;;18.03;77.18
10008;BME280;5043;41.766;26.204;2023-04-04T10:08:49;99632.38;;;17.98;76.53
10008;BME280;5043;41.766;26.204;2023-04-04T10:11:35;99674.72;;;18.95;75.09
10008;BME280;5043;41.766;26.204;2023-04-04T10:14:02;99661.91;;;19.47;72.03
10008;BME280;5043;41.766;26.204;2023-04-04T10:16:32;99687.13;;;20.15;69.30
10008;BME280;5043;41.766;26.204;2023-04-04T10:19:03;99658.91;;;21.07;64.25
10008;BME280;5043;41.766;26.204;2023-04-04T10:21:29;99651.00;;;20.92;63.49
10008;BME280;5043;41.766;26.204;2023-04-04T10:23:56;99657.47;;;21.11;63.76
10008;BME280;5043;41.766;26.204;2023-04-04T10:26:24;99647.50;;;20.98;61.50
10008;BME280;5043;41.766;26.204;2023-04-04T10:28:50;99654.78;;;21.04;62.96
10008;BME280;5043;41.766;26.204;2023-04-04T10:31:23;99602.19;;;21.43;61.69
10008;BME280;5043;41.766;26.204;2023-04-04T10:36:31;99649.25;;;21.58;59.34
10008;BME280;5043;41.766;26.204;2023-04-04T10:39:05;99641.81;;;21.67;58.70
10008;BME280;5043;41.766;26.204;2023-04-04T10:41:34;99640.38;;;21.45;58.08
10008;BME280;5043;41.766;26.204;2023-04-04T10:44:09;99645.72;;;21.32;57.67
10008;BME280;5043;41.766;26.204;2023-04-04T10:46:42;99646.34;;;21.07;60.61
10008;BME280;5043;41.766;26.204;2023-04-04T10:49:10;99654.13;;;20.96;61.67
10008;BME280;5043;41.766;26.204;2023-04-04T10:51:36;99645.50;;;21.07;60.99
10008;BME280;5043;41.766;26.204;2023-04-04T10:54:02;99614.56;;;21.04;60.34
10008;BME280;5043;41.766;26.204;2023-04-04T10:56:28;99655.88;;;21.43;57.75
10008;BME280;5043;41.766;26.204;2023-04-04T10:59:21;99648.03;;;21.54;55.62
10008;BME280;5043;41.766;26.204;2023-04-04T11:01:59;99642.03;;;21.39;57.08
10008;BME280;5043;41.766;26.204;2023-04-04T11:04:33;99636.88;;;21.38;56.28
10008;BME280;5043;41.766;26.204;2023-04-04T11:09:52;99630.78;;;22.27;54.38
10008;BME280;5043;41.766;26.204;2023-04-04T11:12:27;99635.75;;;22.24;51.34
10008;BME280;5043;41.766;26.204;2023-04-04T11:15:06;99631.91;;;21.94;53.78
10008;BME280;5043;41.766;26.204;2023-04-04T11:17:59;99627.16;;;21.89;54.64
10008;BME280;5043;41.766;26.204;2023-04-04T11:20:31;99617.66;;;21.86;52.83
10008;BME280;5043;41.766;26.204;2023-04-04T11:23:05;99605.47;;;21.77;53.33
10008;BME280;5043;41.766;26.204;2023-04-04T11:25:40;99637.06;;;21.30;53.43
10008;BME280;5043;41.766;26.204;2023-04-04T11:28:14;99601.75;;;21.72;55.05
10008;BME280;5043;41.766;26.204;2023-04-04T11:30:41;99573.63;;;21.81;52.93
10008;BME280;5043;41.766;26.204;2023-04-04T11:33:24;99617.03;;;21.91;53.40
10008;BME280;5043;41.766;26.204;2023-04-04T11:35:51;99614.69;;;22.14;50.49
10008;BME280;5043;41.766;26.204;2023-04-04T11:38:18;99593.50;;;21.54;51.65
10008;BME280;5043;41.766;26.204;2023-04-04T11:40:52;99610.03;;;21.51;53.94
10008;BME280;5043;41.766;26.204;2023-04-04T11:43:19;99608.34;;;21.76;53.12
10008;BME280;5043;41.766;26.204;2023-04-04T11:45:45;99620.13;;;21.95;51.55
10008;BME280;5043;41.766;26.204;2023-04-04T11:48:14;99597.28;;;22.36;50.41
10008;BME280;5043;41.766;26.204;2023-04-04T11:50:40;99543.44;;;22.05;49.75
10008;BME280;5043;41.766;26.204;2023-04-04T11:53:10;99591.00;;;22.49;50.84
10008;BME280;5043;41.766;26.204;2023-04-04T11:55:42;99586.63;;;22.61;49.08
10008;BME280;5043;41.766;26.204;2023-04-04T11:58:09;99588.44;;;22.67;48.86
10008;BME280;5043;41.766;26.204;2023-04-04T12:00:36;99578.97;;;22.65;48.22
10008;BME280;5043;41.766;26.204;2023-04-04T12:03:04;99573.41;;;22.02;49.57
10008;BME280;5043;41.766;26.204;2023-04-04T12:05:31;99588.56;;;21.44;52.06
10008;BME280;5043;41.766;26.204;2023-04-04T12:07:58;99586.69;;;21.58;52.32
10008;BME280;5043;41.766;26.204;2023-04-04T12:10:28;99596.56;;;21.90;50.97
10008;BME280;5043;41.766;26.204;2023-04-04T12:12:57;99568.94;;;22.34;49.92
10008;BME280;5043;41.766;26.204;2023-04-04T12:15:22;99577.00;;;22.78;46.58
10008;BME280;5043;41.766;26.204;2023-04-04T12:17:49;99542.88;;;22.79;47.97
10008;BME280;5043;41.766;26.204;2023-04-04T12:20:17;99555.53;;;22.72;48.78
10008;BME280;5043;41.766;26.204;2023-04-04T12:22:48;99559.31;;;23.20;47.80
10008;BME280;5043;41.766;26.204;2023-04-04T12:25:17;99562.75;;;23.94;45.37
10008;BME280;5043;41.766;26.204;2023-04-04T12:27:52;99553.56;;;23.41;45.47
10008;BME280;5043;41.766;26.204;2023-04-04T12:30:22;99545.81;;;23.26;45.07
10008;BME280;5043;41.766;26.204;2023-04-04T12:32:50;99539.94;;;23.36;45.47
10008;BME280;5043;41.766;26.204;2023-04-04T12:35:22;99531.16;;;24.02;43.22
10008;BME280;5043;41.766;26.204;2023-04-04T12:38:05;99530.81;;;23.98;42.12
10008;BME280;5043;41.766;26.204;2023-04-04T12:40:37;99538.78;;;23.68;43.18
10008;BME280;5043;41.766;26.204;2023-04-04T12:43:05;99513.94;;;22.36;48.38
10008;BME280;5043;41.766;26.204;2023-04-04T12:45:31;99497.69;;;23.12;46.46
10008;BME280;5043;41.766;26.204;2023-04-04T12:47:58;99518.63;;;24.43;41.35
10008;BME280;5043;41.766;26.204;2023-04-04T12:50:26;99491.25;;;24.58;40.34
10008;BME280;5043;41.766;26.204;2023-04-04T12:52:57;99513.59;;;25.64;37.84
10008;BME280;5043;41.766;26.204;2023-04-04T12:55:25;99524.44;;;26.72;36.74
10008;BME280;5043;41.766;26.204;2023-04-04T12:58:00;99516.56;;;28.09;34.65
10008;BME280;5043;41.766;26.204;2023-04-04T13:00:29;99517.91;;;28.11;34.77
10008;BME280;5043;41.766;26.204;2023-04-04T13:02:57;99511.59;;;27.46;36.08
10008;BME280;5043;41.766;26.204;2023-04-04T13:05:26;99489.63;;;26.64;37.21